createdAt,value
2019-02-09T00:00:33.069Z,996.05
2019-02-09T00:01:32.076Z,996.10
2019-02-09T00:02:32.097Z,996.03
2019-02-09T00:03:32.125Z,996.03
2019-02-09T00:04:32.143Z,996.01
2019-02-09T00:05:32.146Z,996.04
2019-02-09T00:06:33.054Z,996.01
2019-02-09T00:07:32.179Z,996.09
2019-02-09T00:08:32.212Z,996.05
2019-02-09T00:09:32.217Z,996.04
2019-02-09T00:10:32.231Z,996.01
2019-02-09T00:11:32.249Z,995.98
2019-02-09T00:12:32.263Z,995.94
2019-02-09T00:13:32.288Z,996.00
2019-02-09T00:14:32.326Z,996.03
2019-02-09T00:15:32.300Z,996.11
2019-02-09T00:16:32.331Z,996.00
2019-02-09T00:17:32.331Z,996.01
2019-02-09T00:18:32.380Z,995.96
2019-02-09T00:19:32.365Z,995.95
2019-02-09T00:20:32.385Z,995.91
2019-02-09T00:21:32.400Z,995.85
2019-02-09T00:22:32.425Z,995.85
2019-02-09T00:23:32.446Z,995.84
2019-02-09T00:24:32.448Z,995.76
2019-02-09T00:25:32.482Z,995.75
2019-02-09T00:26:32.490Z,995.78
2019-02-09T00:27:32.512Z,995.68
2019-02-09T00:28:32.544Z,995.63
2019-02-09T00:29:32.556Z,995.74
2019-02-09T00:30:32.572Z,995.74
2019-02-09T00:31:32.594Z,995.68
2019-02-09T00:32:32.603Z,995.65
2019-02-09T00:33:32.630Z,995.67
2019-02-09T00:34:32.638Z,995.62
2019-02-09T00:35:32.654Z,995.58
2019-02-09T00:36:32.679Z,995.59
2019-02-09T00:37:32.689Z,995.51
2019-02-09T00:38:32.728Z,995.48
2019-02-09T00:39:32.732Z,995.53
2019-02-09T00:40:32.759Z,995.51
2019-02-09T00:41:32.773Z,995.56
2019-02-09T00:42:32.794Z,995.46
2019-02-09T00:43:32.823Z,995.49
2019-02-09T00:44:32.834Z,995.33
2019-02-09T00:45:32.850Z,995.34
2019-02-09T00:46:32.871Z,995.27
2019-02-09T00:47:32.898Z,995.28
2019-02-09T00:48:32.927Z,995.16
2019-02-09T00:49:32.941Z,995.24
2019-02-09T00:50:32.960Z,995.23
2019-02-09T00:51:32.986Z,995.27
2019-02-09T00:52:33.010Z,995.08
2019-02-09T00:53:33.047Z,995.08
2019-02-09T00:54:33.061Z,994.98
2019-02-09T00:55:33.096Z,994.92
2019-02-09T00:56:33.114Z,995.00
2019-02-09T00:57:33.140Z,994.99
2019-02-09T00:58:33.175Z,995.01
2019-02-09T00:59:33.208Z,994.88
2019-02-09T01:00:33.212Z,994.96
2019-02-09T01:01:33.231Z,994.85
2019-02-09T01:02:33.250Z,995.02
2019-02-09T01:03:33.298Z,995.05
2019-02-09T01:04:33.294Z,995.07
2019-02-09T01:05:33.315Z,995.11
2019-02-09T01:06:33.335Z,995.15
2019-02-09T01:07:33.353Z,995.20
2019-02-09T01:08:33.380Z,995.24
2019-02-09T01:09:33.393Z,995.20
2019-02-09T01:10:33.413Z,995.15
2019-02-09T01:11:33.431Z,995.10
2019-02-09T01:12:33.454Z,995.17
2019-02-09T01:13:33.492Z,994.98
2019-02-09T01:14:33.504Z,995.00
2019-02-09T01:15:33.529Z,995.05
2019-02-09T01:16:33.550Z,994.94
2019-02-09T01:17:33.568Z,995.07
2019-02-09T01:18:33.605Z,995.00
2019-02-09T01:19:33.610Z,994.94
2019-02-09T01:20:33.639Z,994.95
2019-02-09T01:21:33.665Z,994.93
2019-02-09T01:22:33.691Z,994.89
2019-02-09T01:23:33.738Z,994.96
2019-02-09T01:24:33.735Z,994.91
2019-02-09T01:25:33.754Z,994.86
2019-02-09T01:26:33.779Z,994.92
2019-02-09T01:27:33.800Z,994.94
2019-02-09T01:28:33.832Z,994.91
2019-02-09T01:29:33.845Z,994.94
2019-02-09T01:30:33.864Z,994.97
2019-02-09T01:31:33.886Z,994.92
2019-02-09T01:32:33.905Z,995.00
2019-02-09T01:33:33.946Z,994.98
2019-02-09T01:34:33.940Z,995.00
2019-02-09T01:35:33.958Z,994.98
2019-02-09T01:36:33.978Z,994.95
2019-02-09T01:37:33.999Z,994.92
2019-02-09T01:38:34.033Z,994.84
2019-02-09T01:39:34.038Z,994.86
2019-02-09T01:40:34.056Z,994.86
2019-02-09T01:41:34.080Z,994.88
2019-02-09T01:42:34.102Z,994.88
2019-02-09T01:43:34.145Z,994.95
2019-02-09T01:44:34.145Z,994.87
2019-02-09T01:45:34.169Z,994.89
2019-02-09T01:46:34.195Z,994.89
2019-02-09T01:47:34.222Z,994.78
2019-02-09T01:48:34.262Z,994.79
2019-02-09T01:49:34.276Z,994.79
2019-02-09T01:50:34.307Z,994.77
2019-02-09T01:51:34.335Z,994.77
2019-02-09T01:52:34.363Z,994.75
2019-02-09T01:53:34.405Z,994.77
2019-02-09T01:54:34.422Z,994.73
2019-02-09T01:55:34.450Z,994.76
2019-02-09T01:56:34.477Z,994.66
2019-02-09T01:57:34.506Z,994.71
2019-02-09T01:58:34.571Z,994.75
2019-02-09T01:59:34.566Z,994.78
2019-02-09T02:00:34.593Z,994.74
2019-02-09T02:01:34.624Z,994.77
2019-02-09T02:02:34.654Z,994.82
2019-02-09T02:03:34.693Z,994.76
2019-02-09T02:04:34.707Z,994.78
2019-02-09T02:05:34.737Z,994.82
2019-02-09T02:06:34.760Z,994.81
2019-02-09T02:07:34.788Z,994.78
2019-02-09T02:08:34.840Z,994.75
2019-02-09T02:09:34.845Z,994.74
2019-02-09T02:10:34.878Z,994.68
2019-02-09T02:11:34.912Z,994.68
2019-02-09T02:12:34.937Z,994.68
2019-02-09T02:13:34.976Z,994.63
2019-02-09T02:14:34.991Z,994.62
2019-02-09T02:15:35.021Z,994.58
2019-02-09T02:16:35.048Z,994.46
2019-02-09T02:17:35.079Z,994.50
2019-02-09T02:18:35.118Z,994.53
2019-02-09T02:19:35.132Z,994.51
2019-02-09T02:20:35.161Z,994.51
2019-02-09T02:21:35.211Z,994.48
2019-02-09T02:22:35.220Z,994.39
2019-02-09T02:23:35.259Z,994.36
2019-02-09T02:24:35.280Z,994.36
2019-02-09T02:25:35.311Z,994.40
2019-02-09T02:26:35.343Z,994.42
2019-02-09T02:27:35.377Z,994.37
2019-02-09T02:28:35.419Z,994.39
2019-02-09T02:29:35.440Z,994.39
2019-02-09T02:30:35.475Z,994.44
2019-02-09T02:31:35.499Z,994.44
2019-02-09T02:32:35.523Z,994.38
2019-02-09T02:33:35.572Z,994.36
2019-02-09T02:34:35.587Z,994.26
2019-02-09T02:35:35.611Z,994.32
2019-02-09T02:36:35.642Z,994.31
2019-02-09T02:37:35.667Z,994.33
2019-02-09T02:38:35.707Z,994.33
2019-02-09T02:39:35.725Z,994.24
2019-02-09T02:40:35.776Z,994.19
2019-02-09T02:41:35.783Z,994.20
2019-02-09T02:42:35.815Z,994.20
2019-02-09T02:43:35.858Z,994.28
2019-02-09T02:44:35.876Z,994.24
2019-02-09T02:45:35.911Z,994.25
2019-02-09T02:46:35.944Z,994.25
2019-02-09T02:47:37.514Z,994.33
2019-02-09T02:48:36.129Z,994.29
2019-02-09T02:49:36.059Z,994.27
2019-02-09T02:50:36.103Z,994.23
2019-02-09T02:51:36.139Z,994.26
2019-02-09T02:52:36.170Z,994.21
2019-02-09T02:53:36.210Z,994.16
2019-02-09T02:54:36.239Z,994.18
2019-02-09T02:55:36.274Z,994.10
2019-02-09T02:56:36.313Z,994.13
2019-02-09T02:57:36.361Z,994.15
2019-02-09T02:58:36.406Z,994.06
2019-02-09T02:59:36.428Z,994.12
2019-02-09T03:00:36.470Z,994.10
2019-02-09T03:01:36.505Z,994.05
2019-02-09T03:02:36.542Z,994.11
2019-02-09T03:03:36.587Z,994.01
2019-02-09T03:04:36.672Z,994.00
2019-02-09T03:05:36.648Z,994.02
2019-02-09T03:06:36.681Z,994.01
2019-02-09T03:07:36.716Z,994.06
2019-02-09T03:08:36.784Z,994.07
2019-02-09T03:09:36.794Z,994.03
2019-02-09T03:10:36.836Z,994.09
2019-02-09T03:11:36.907Z,994.14
2019-02-09T03:12:36.911Z,994.06
2019-02-09T03:13:36.972Z,994.08
2019-02-09T03:14:36.994Z,994.13
2019-02-09T03:15:37.043Z,994.15
2019-02-09T03:16:37.163Z,994.20
2019-02-09T03:17:37.122Z,994.20
2019-02-09T03:18:37.177Z,994.21
2019-02-09T03:19:37.203Z,994.21
2019-02-09T03:20:37.242Z,994.25
2019-02-09T03:21:37.313Z,994.23
2019-02-09T03:22:37.323Z,994.18
2019-02-09T03:23:37.372Z,994.20
2019-02-09T03:24:37.402Z,994.25
2019-02-09T03:25:37.436Z,994.22
2019-02-09T03:26:37.477Z,994.18
2019-02-09T03:27:37.512Z,994.13
2019-02-09T03:28:37.576Z,994.19
2019-02-09T03:29:37.594Z,994.17
2019-02-09T03:30:47.964Z,994.16
2019-02-09T03:31:38.660Z,994.16
2019-02-09T03:32:37.691Z,994.08
2019-02-09T03:33:37.739Z,994.10
2019-02-09T03:34:37.759Z,994.16
2019-02-09T03:35:37.789Z,994.15
2019-02-09T03:36:37.824Z,994.09
2019-02-09T03:37:37.861Z,994.08
2019-02-09T03:38:37.911Z,994.07
2019-02-09T03:39:37.933Z,994.12
2019-02-09T03:40:37.970Z,994.07
2019-02-09T03:41:38.005Z,994.04
2019-02-09T03:42:38.039Z,994.07
2019-02-09T03:43:38.087Z,994.14
2019-02-09T03:44:38.112Z,994.10
2019-02-09T03:45:38.153Z,994.07
2019-02-09T03:46:38.190Z,994.11
2019-02-09T03:47:38.227Z,994.06
2019-02-09T03:48:38.279Z,994.04
2019-02-09T03:49:38.296Z,994.07
2019-02-09T03:50:38.339Z,994.05
2019-02-09T03:51:38.374Z,994.00
2019-02-09T03:52:38.405Z,994.20
2019-02-09T03:53:38.457Z,994.16
2019-02-09T03:54:38.472Z,994.20
2019-02-09T03:55:38.507Z,994.17
2019-02-09T03:56:38.544Z,994.19
2019-02-09T03:57:38.573Z,994.26
2019-02-09T03:58:38.631Z,994.28
2019-02-09T03:59:38.648Z,994.23
2019-02-09T04:00:38.681Z,994.33
2019-02-09T04:01:38.719Z,994.31
2019-02-09T04:02:38.756Z,994.26
2019-02-09T04:03:38.803Z,994.34
2019-02-09T04:04:38.832Z,994.28
2019-02-09T04:05:38.869Z,994.33
2019-02-09T04:06:38.905Z,994.29
2019-02-09T04:07:38.940Z,994.23
2019-02-09T04:08:38.996Z,994.22
2019-02-09T04:09:39.009Z,994.22
2019-02-09T04:10:39.040Z,994.20
2019-02-09T04:11:39.071Z,994.17
2019-02-09T04:12:39.104Z,994.19
2019-02-09T04:13:39.147Z,994.27
2019-02-09T04:14:39.172Z,994.26
2019-02-09T04:15:39.204Z,994.28
2019-02-09T04:16:39.236Z,994.32
2019-02-09T04:17:39.262Z,994.19
2019-02-09T04:18:39.301Z,994.25
2019-02-09T04:19:39.316Z,994.28
2019-02-09T04:20:39.346Z,994.30
2019-02-09T04:21:39.375Z,994.31
2019-02-09T04:22:39.406Z,994.31
2019-02-09T04:23:39.463Z,994.39
2019-02-09T04:24:39.467Z,994.36
2019-02-09T04:25:39.505Z,994.34
2019-02-09T04:26:39.528Z,994.29
2019-02-09T04:27:39.557Z,994.26
2019-02-09T04:28:39.616Z,994.27
2019-02-09T04:29:39.614Z,994.24
2019-02-09T04:30:39.638Z,994.20
2019-02-09T04:31:39.668Z,994.11
2019-02-09T04:32:39.694Z,994.18
2019-02-09T04:33:39.739Z,994.11
2019-02-09T04:34:39.750Z,994.09
2019-02-09T04:35:39.781Z,994.09
2019-02-09T04:36:39.813Z,994.05
2019-02-09T04:37:39.832Z,993.99
2019-02-09T04:38:39.868Z,994.06
2019-02-09T04:39:39.890Z,994.19
2019-02-09T04:40:39.910Z,994.23
2019-02-09T04:41:39.936Z,994.27
2019-02-09T04:42:39.959Z,994.12
2019-02-09T04:43:39.994Z,994.12
2019-02-09T04:44:40.009Z,994.23
2019-02-09T04:45:40.034Z,994.32
2019-02-09T04:46:40.057Z,994.45
2019-02-09T04:47:40.083Z,994.56
2019-02-09T04:48:40.125Z,994.66
2019-02-09T04:49:40.125Z,994.62
2019-02-09T04:50:40.140Z,994.65
2019-02-09T04:51:40.167Z,994.71
2019-02-09T04:52:40.185Z,994.67
2019-02-09T04:53:40.211Z,994.62
2019-02-09T04:54:40.220Z,994.55
2019-02-09T04:55:40.239Z,994.59
2019-02-09T04:56:40.256Z,994.57
2019-02-09T04:57:40.272Z,994.60
2019-02-09T04:58:40.400Z,994.62
2019-02-09T04:59:40.303Z,994.60
2019-02-09T05:00:40.322Z,994.58
2019-02-09T05:01:40.341Z,994.57
2019-02-09T05:02:40.361Z,994.67
2019-02-09T05:03:40.376Z,994.64
2019-02-09T05:04:40.402Z,994.65
2019-02-09T05:05:40.412Z,994.63
2019-02-09T05:06:40.428Z,994.66
2019-02-09T05:07:40.446Z,994.70
2019-02-09T05:08:40.469Z,994.72
2019-02-09T05:09:40.490Z,994.76
2019-02-09T05:10:40.501Z,994.76
2019-02-09T05:11:40.515Z,994.72
2019-02-09T05:12:40.527Z,994.79
2019-02-09T05:13:40.538Z,994.79
2019-02-09T05:14:40.560Z,994.76
2019-02-09T05:15:40.556Z,994.78
2019-02-09T05:16:40.566Z,994.78
2019-02-09T05:17:40.579Z,994.79
2019-02-09T05:18:40.653Z,994.83
2019-02-09T05:19:40.611Z,994.83
2019-02-09T05:20:40.615Z,994.81
2019-02-09T05:21:40.625Z,994.82
2019-02-09T05:22:40.640Z,994.78
2019-02-09T05:23:40.650Z,994.82
2019-02-09T05:24:40.683Z,994.87
2019-02-09T05:25:40.676Z,994.81
2019-02-09T05:26:40.691Z,994.80
2019-02-09T05:27:40.704Z,994.83
2019-02-09T05:28:40.715Z,994.89
2019-02-09T05:29:40.739Z,994.79
2019-02-09T05:30:40.732Z,994.90
2019-02-09T05:31:40.736Z,994.84
2019-02-09T05:32:40.742Z,994.88
2019-02-09T05:33:40.752Z,994.89
2019-02-09T05:34:40.772Z,994.84
2019-02-09T05:35:40.767Z,994.89
2019-02-09T05:36:40.776Z,994.88
2019-02-09T05:37:40.786Z,994.96
2019-02-09T05:38:40.794Z,994.92
2019-02-09T05:39:40.817Z,994.90
2019-02-09T05:40:40.810Z,994.94
2019-02-09T05:41:40.813Z,994.98
2019-02-09T05:42:40.815Z,995.01
2019-02-09T05:43:40.824Z,995.00
2019-02-09T05:44:40.842Z,994.97
2019-02-09T05:45:40.834Z,995.03
2019-02-09T05:46:40.841Z,995.06
2019-02-09T05:47:40.847Z,995.04
2019-02-09T05:48:40.854Z,995.06
2019-02-09T05:49:40.870Z,995.12
2019-02-09T05:50:40.865Z,995.03
2019-02-09T05:51:40.865Z,995.14
2019-02-09T05:52:40.869Z,995.04
2019-02-09T05:53:40.874Z,995.12
2019-02-09T05:54:40.892Z,995.19
2019-02-09T05:55:40.884Z,995.22
2019-02-09T05:56:40.893Z,995.22
2019-02-09T05:57:40.889Z,995.26
2019-02-09T05:58:40.892Z,995.27
2019-02-09T05:59:40.905Z,995.32
2019-02-09T06:00:40.896Z,995.30
2019-02-09T06:01:40.904Z,995.34
2019-02-09T06:02:40.891Z,995.28
2019-02-09T06:03:40.889Z,995.33
2019-02-09T06:04:40.886Z,995.37
2019-02-09T06:05:40.894Z,995.28
2019-02-09T06:06:40.890Z,995.42
2019-02-09T06:07:40.879Z,995.36
2019-02-09T06:08:40.877Z,995.37
2019-02-09T06:09:40.875Z,995.36
2019-02-09T06:10:40.875Z,995.32
2019-02-09T06:11:40.890Z,995.36
2019-02-09T06:12:40.876Z,995.35
2019-02-09T06:13:40.876Z,995.39
2019-02-09T06:14:40.877Z,995.39
2019-02-09T06:15:40.877Z,995.35
2019-02-09T06:16:40.874Z,995.36
2019-02-09T06:17:40.881Z,995.39
2019-02-09T06:18:40.869Z,995.36
2019-02-09T06:19:40.874Z,995.36
2019-02-09T06:20:40.886Z,995.45
2019-02-09T06:21:40.871Z,995.49
2019-02-09T06:22:40.872Z,995.50
2019-02-09T06:23:40.886Z,995.50
2019-02-09T06:24:40.875Z,995.47
2019-02-09T06:25:40.922Z,995.49
2019-02-09T06:26:40.870Z,995.51
2019-02-09T06:27:40.869Z,995.53
2019-02-09T06:28:40.865Z,995.52
2019-02-09T06:29:40.880Z,995.61
2019-02-09T06:30:40.860Z,995.55
2019-02-09T06:31:41.395Z,995.54
2019-02-09T06:32:40.847Z,995.52
2019-02-09T06:33:40.845Z,995.62
2019-02-09T06:34:40.839Z,995.52
2019-02-09T06:35:40.847Z,995.64
2019-02-09T06:36:40.829Z,995.55
2019-02-09T06:37:40.825Z,995.58
2019-02-09T06:38:40.820Z,995.62
2019-02-09T06:39:40.816Z,995.69
2019-02-09T06:40:40.811Z,995.67
2019-02-09T06:41:40.814Z,995.67
2019-02-09T06:42:40.800Z,995.69
2019-02-09T06:43:40.794Z,995.75
2019-02-09T06:44:40.794Z,995.81
2019-02-09T06:45:40.802Z,995.76
2019-02-09T06:46:40.796Z,995.71
2019-02-09T06:47:40.802Z,995.72
2019-02-09T06:48:40.791Z,995.78
2019-02-09T06:49:40.790Z,995.90
2019-02-09T06:50:40.791Z,995.87
2019-02-09T06:51:40.792Z,995.95
2019-02-09T06:52:40.790Z,995.91
2019-02-09T06:53:40.802Z,995.84
2019-02-09T06:54:40.789Z,995.88
2019-02-09T06:55:40.785Z,995.88
2019-02-09T06:56:40.778Z,995.95
2019-02-09T06:57:40.775Z,996.00
2019-02-09T06:58:40.771Z,995.98
2019-02-09T06:59:40.775Z,995.92
2019-02-09T07:00:40.763Z,995.89
2019-02-09T07:01:47.602Z,996.03
2019-02-09T07:02:41.757Z,996.01
2019-02-09T07:03:40.752Z,996.07
2019-02-09T07:04:40.746Z,996.01
2019-02-09T07:05:40.753Z,995.97
2019-02-09T07:06:40.735Z,996.07
2019-02-09T07:07:40.725Z,995.97
2019-02-09T07:08:40.717Z,996.04
2019-02-09T07:09:40.710Z,996.04
2019-02-09T07:10:40.703Z,996.06
2019-02-09T07:11:40.703Z,996.09
2019-02-09T07:12:40.683Z,996.10
2019-02-09T07:13:40.677Z,995.98
2019-02-09T07:14:40.672Z,996.01
2019-02-09T07:15:40.673Z,996.11
2019-02-09T07:16:40.650Z,996.16
2019-02-09T07:17:40.687Z,996.10
2019-02-09T07:18:40.626Z,996.12
2019-02-09T07:19:40.615Z,996.07
2019-02-09T07:20:40.602Z,996.09
2019-02-09T07:21:40.595Z,996.11
2019-02-09T07:22:40.585Z,996.11
2019-02-09T07:23:40.582Z,996.09
2019-02-09T07:24:40.563Z,996.09
2019-02-09T07:25:40.551Z,996.17
2019-02-09T07:26:40.537Z,996.17
2019-02-09T07:27:40.524Z,996.18
2019-02-09T07:28:40.514Z,996.14
2019-02-09T07:29:40.514Z,996.20
2019-02-09T07:30:40.504Z,996.26
2019-02-09T07:31:40.490Z,996.22
2019-02-09T07:32:40.486Z,996.29
2019-02-09T07:33:40.476Z,996.24
2019-02-09T07:34:40.468Z,996.36
2019-02-09T07:35:40.471Z,996.33
2019-02-09T07:36:40.455Z,996.40
2019-02-09T07:37:40.441Z,996.41
2019-02-09T07:38:40.433Z,996.42
2019-02-09T07:39:40.424Z,996.45
2019-02-09T07:40:40.407Z,996.39
2019-02-09T07:41:40.408Z,996.38
2019-02-09T07:42:40.399Z,996.41
2019-02-09T07:43:40.375Z,996.36
2019-02-09T07:44:40.361Z,996.40
2019-02-09T07:45:40.347Z,996.40
2019-02-09T07:46:40.328Z,996.42
2019-02-09T07:47:40.325Z,996.34
2019-02-09T07:48:40.293Z,996.46
2019-02-09T07:49:40.278Z,996.43
2019-02-09T07:50:40.265Z,996.48
2019-02-09T07:51:40.257Z,996.57
2019-02-09T07:52:40.234Z,996.53
2019-02-09T07:53:40.227Z,996.55
2019-02-09T07:54:40.203Z,996.55
2019-02-09T07:55:40.186Z,996.53
2019-02-09T07:56:40.166Z,996.40
2019-02-09T07:57:40.144Z,996.55
2019-02-09T07:58:40.128Z,996.54
2019-02-09T07:59:40.121Z,996.56
2019-02-09T08:00:40.085Z,996.65
2019-02-09T08:01:40.062Z,996.59
2019-02-09T08:02:40.038Z,996.68
2019-02-09T08:03:40.018Z,996.75
2019-02-09T08:04:39.992Z,996.89
2019-02-09T08:05:39.977Z,996.85
2019-02-09T08:06:41.299Z,996.90
2019-02-09T08:07:39.922Z,996.94
2019-02-09T08:08:39.905Z,996.89
2019-02-09T08:09:39.879Z,996.90
2019-02-09T08:10:39.855Z,996.83
2019-02-09T08:11:39.848Z,996.93
2019-02-09T08:12:39.809Z,996.85
2019-02-09T08:13:39.781Z,996.88
2019-02-09T08:14:39.759Z,996.89
2019-02-09T08:15:39.736Z,996.89
2019-02-09T08:16:39.706Z,997.00
2019-02-09T08:17:39.694Z,997.12
2019-02-09T08:18:39.658Z,996.91
2019-02-09T08:19:39.638Z,996.99
2019-02-09T08:20:39.620Z,997.06
2019-02-09T08:21:39.593Z,997.05
2019-02-09T08:22:39.568Z,997.08
2019-02-09T08:23:39.561Z,997.04
2019-02-09T08:24:39.549Z,997.06
2019-02-09T08:25:39.490Z,997.03
2019-02-09T08:26:39.462Z,997.02
2019-02-09T08:27:39.439Z,997.01
2019-02-09T08:28:39.410Z,997.05
2019-02-09T08:29:39.398Z,997.00
2019-02-09T08:30:39.351Z,996.96
2019-02-09T08:31:39.319Z,997.00
2019-02-09T08:32:39.291Z,996.97
2019-02-09T08:33:39.264Z,996.99
2019-02-09T08:34:39.238Z,997.08
2019-02-09T08:35:40.413Z,997.06
2019-02-09T08:36:39.194Z,997.08
2019-02-09T08:37:39.170Z,997.03
2019-02-09T08:38:39.141Z,997.07
2019-02-09T08:39:39.114Z,997.08
2019-02-09T08:40:39.086Z,996.97
2019-02-09T08:41:39.080Z,997.05
2019-02-09T08:42:40.016Z,997.14
2019-02-09T08:43:39.015Z,997.10
2019-02-09T08:44:38.998Z,997.07
2019-02-09T08:45:38.974Z,997.18
2019-02-09T08:46:38.945Z,997.13
2019-02-09T08:47:38.924Z,997.16
2019-02-09T08:48:38.875Z,997.20
2019-02-09T08:49:38.834Z,997.21
2019-02-09T08:50:38.804Z,997.15
2019-02-09T08:51:38.759Z,997.20
2019-02-09T08:52:38.717Z,997.16
2019-02-09T08:53:38.688Z,997.39
2019-02-09T08:54:38.636Z,997.24
2019-02-09T08:55:38.593Z,997.20
2019-02-09T08:56:38.555Z,997.25
2019-02-09T08:57:38.517Z,997.25
2019-02-09T08:58:38.481Z,997.36
2019-02-09T08:59:38.454Z,997.39
2019-02-09T09:00:38.425Z,997.34
2019-02-09T09:01:38.363Z,997.42
2019-02-09T09:02:38.318Z,997.22
2019-02-09T09:03:38.276Z,997.28
2019-02-09T09:04:38.242Z,997.37
2019-02-09T09:05:38.225Z,997.25
2019-02-09T09:06:38.171Z,997.24
2019-02-09T09:07:38.136Z,997.32
2019-02-09T09:08:38.100Z,997.25
2019-02-09T09:09:38.061Z,997.29
2019-02-09T09:10:38.023Z,997.26
2019-02-09T09:11:37.995Z,997.35
2019-02-09T09:12:37.943Z,997.26
2019-02-09T09:13:37.911Z,997.47
2019-02-09T09:14:37.877Z,997.44
2019-02-09T09:15:37.851Z,997.46
2019-02-09T09:16:37.815Z,997.27
2019-02-09T09:17:37.794Z,997.33
2019-02-09T09:18:37.739Z,997.38
2019-02-09T09:19:37.704Z,997.30
2019-02-09T09:20:37.671Z,997.38
2019-02-09T09:21:37.632Z,997.27
2019-02-09T09:22:37.599Z,997.43
2019-02-09T09:23:37.575Z,997.45
2019-02-09T09:24:37.529Z,997.31
2019-02-09T09:25:37.495Z,997.25
2019-02-09T09:26:37.458Z,997.27
2019-02-09T09:27:37.420Z,997.36
2019-02-09T09:28:37.393Z,997.20
2019-02-09T09:29:37.365Z,997.26
2019-02-09T09:30:37.320Z,997.27
2019-02-09T09:31:37.285Z,997.29
2019-02-09T09:32:37.253Z,997.33
2019-02-09T09:33:37.218Z,997.34
2019-02-09T09:34:37.180Z,997.30
2019-02-09T09:35:37.154Z,997.29
2019-02-09T09:36:37.097Z,997.28
2019-02-09T09:37:37.058Z,997.48
2019-02-09T09:38:37.015Z,997.24
2019-02-09T09:39:36.972Z,997.23
2019-02-09T09:40:36.942Z,997.29
2019-02-09T09:41:36.915Z,997.45
2019-02-09T09:42:36.861Z,997.28
2019-02-09T09:43:36.832Z,997.46
2019-02-09T09:44:36.790Z,997.54
2019-02-09T09:45:36.754Z,997.47
2019-02-09T09:46:36.720Z,997.38
2019-02-09T09:47:36.694Z,997.47
2019-02-09T09:48:36.650Z,997.39
2019-02-09T09:49:36.612Z,997.54
2019-02-09T09:50:36.578Z,997.57
2019-02-09T09:51:36.541Z,997.46
2019-02-09T09:52:36.504Z,997.56
2019-02-09T09:53:36.476Z,997.43
2019-02-09T09:54:36.425Z,997.54
2019-02-09T09:55:36.385Z,997.48
2019-02-09T09:56:36.349Z,997.41
2019-02-09T09:57:36.307Z,997.41
2019-02-09T09:58:36.271Z,997.52
2019-02-09T09:59:36.234Z,997.47
2019-02-09T10:00:36.185Z,997.40
2019-02-09T10:01:36.156Z,997.49
2019-02-09T10:02:36.740Z,997.48
2019-02-09T10:03:36.072Z,997.46
2019-02-09T10:04:36.031Z,997.51
2019-02-09T10:05:36.001Z,997.53
2019-02-09T10:06:35.952Z,997.39
2019-02-09T10:07:35.921Z,997.47
2019-02-09T10:08:35.880Z,997.56
2019-02-09T10:09:35.841Z,997.53
2019-02-09T10:10:35.801Z,997.39
2019-02-09T10:11:35.768Z,997.41
2019-02-09T10:12:35.713Z,997.48
2019-02-09T10:13:35.670Z,997.45
2019-02-09T10:14:35.623Z,997.46
2019-02-09T10:15:35.625Z,997.49
2019-02-09T10:16:35.537Z,997.46
2019-02-09T10:17:35.503Z,997.53
2019-02-09T10:18:35.444Z,997.53
2019-02-09T10:19:35.397Z,997.64
2019-02-09T10:20:35.353Z,997.66
2019-02-09T10:21:35.312Z,997.87
2019-02-09T10:22:35.269Z,997.97
2019-02-09T10:23:35.249Z,997.87
2019-02-09T10:24:35.175Z,998.00
2019-02-09T10:25:35.126Z,998.04
2019-02-09T10:26:35.082Z,997.92
2019-02-09T10:27:35.024Z,998.03
2019-02-09T10:28:34.980Z,998.08
2019-02-09T10:29:34.969Z,998.01
2019-02-09T10:30:34.890Z,998.04
2019-02-09T10:31:34.848Z,998.04
2019-02-09T10:32:34.836Z,997.96
2019-02-09T10:33:34.753Z,998.00
2019-02-09T10:34:34.704Z,998.00
2019-02-09T10:35:34.669Z,997.91
2019-02-09T10:36:34.608Z,997.88
2019-02-09T10:37:34.560Z,997.80
2019-02-09T10:38:34.506Z,997.85
2019-02-09T10:39:34.452Z,997.74
2019-02-09T10:40:34.401Z,997.83
2019-02-09T10:41:34.364Z,997.84
2019-02-09T10:42:34.311Z,997.90
2019-02-09T10:43:34.261Z,997.79
2019-02-09T10:44:34.214Z,997.76
2019-02-09T10:45:34.168Z,997.77
2019-02-09T10:46:34.120Z,997.86
2019-02-09T10:47:34.085Z,997.85
2019-02-09T10:48:34.025Z,997.80
2019-02-09T10:49:33.975Z,997.76
2019-02-09T10:50:33.931Z,997.80
2019-02-09T10:51:33.876Z,997.70
2019-02-09T10:52:33.918Z,997.70
2019-02-09T10:53:33.811Z,997.76
2019-02-09T10:54:33.730Z,997.73
2019-02-09T10:55:33.679Z,997.59
2019-02-09T10:56:33.640Z,997.67
2019-02-09T10:57:33.575Z,997.71
2019-02-09T10:58:33.535Z,997.71
2019-02-09T10:59:33.481Z,997.66
2019-02-09T11:00:33.420Z,997.78
2019-02-09T11:01:33.381Z,997.77
2019-02-09T11:02:33.344Z,997.75
2019-02-09T11:03:33.412Z,997.73
2019-02-09T11:04:33.206Z,997.78
2019-02-09T11:05:33.167Z,997.73
2019-02-09T11:06:33.099Z,997.63
2019-02-09T11:07:33.055Z,997.75
2019-02-09T11:08:33.011Z,997.67
2019-02-09T11:09:32.946Z,997.77
2019-02-09T11:10:32.889Z,997.71
2019-02-09T11:11:32.874Z,997.64
2019-02-09T11:12:32.797Z,997.68
2019-02-09T11:13:32.733Z,997.70
2019-02-09T11:14:32.684Z,997.70
2019-02-09T11:15:32.626Z,997.59
2019-02-09T11:16:32.571Z,997.68
2019-02-09T11:17:32.523Z,997.68
2019-02-09T11:18:32.458Z,997.60
2019-02-09T11:19:32.407Z,997.62
2019-02-09T11:20:32.355Z,997.65
2019-02-09T11:21:32.301Z,997.60
2019-02-09T11:22:32.258Z,997.56
2019-02-09T11:23:32.242Z,997.67
2019-02-09T11:24:32.149Z,997.66
2019-02-09T11:25:32.092Z,997.65
2019-02-09T11:26:32.038Z,997.77
2019-02-09T11:27:31.988Z,997.76
2019-02-09T11:28:31.945Z,997.70
2019-02-09T11:29:31.893Z,997.77
2019-02-09T11:30:31.820Z,997.86
2019-02-09T11:31:31.793Z,997.68
2019-02-09T11:32:31.717Z,997.67
2019-02-09T11:33:31.846Z,997.75
2019-02-09T11:34:31.608Z,997.74
2019-02-09T11:35:32.230Z,997.71
2019-02-09T11:36:31.509Z,997.82
2019-02-09T11:37:31.447Z,997.70
2019-02-09T11:38:31.391Z,997.81
2019-02-09T11:39:31.343Z,997.82
2019-02-09T11:40:31.282Z,997.83
2019-02-09T11:41:31.253Z,997.70
2019-02-09T11:42:31.164Z,997.83
2019-02-09T11:43:31.104Z,997.71
2019-02-09T11:44:31.051Z,997.85
2019-02-09T11:45:30.999Z,997.81
2019-02-09T11:46:30.947Z,997.67
2019-02-09T11:47:30.911Z,997.76
2019-02-09T11:48:30.843Z,997.76
2019-02-09T11:49:30.798Z,997.78
2019-02-09T11:50:30.723Z,997.81
2019-02-09T11:51:30.666Z,997.72
2019-02-09T11:52:30.625Z,997.68
2019-02-09T11:53:30.577Z,997.65
2019-02-09T11:54:30.506Z,997.67
2019-02-09T11:55:30.445Z,997.65
2019-02-09T11:56:30.379Z,997.56
2019-02-09T11:57:30.317Z,997.67
2019-02-09T11:58:30.251Z,997.68
2019-02-09T11:59:30.213Z,997.74
2019-02-09T12:00:30.119Z,997.69
2019-02-09T12:01:30.045Z,997.64
2019-02-09T12:02:29.985Z,997.65
2019-02-09T12:03:29.920Z,997.72
2019-02-09T12:04:29.869Z,997.68
2019-02-09T12:05:29.862Z,997.61
2019-02-09T12:06:29.701Z,997.74
2019-02-09T12:07:29.630Z,997.86
2019-02-09T12:08:29.563Z,997.81
2019-02-09T12:09:29.494Z,997.78
2019-02-09T12:10:29.435Z,997.71
2019-02-09T12:11:29.388Z,997.84
2019-02-09T12:12:29.298Z,997.75
2019-02-09T12:13:29.230Z,997.85
2019-02-09T12:14:29.177Z,997.87
2019-02-09T12:15:29.117Z,997.83
2019-02-09T12:16:29.052Z,997.85
2019-02-09T12:17:29.014Z,997.87
2019-02-09T12:18:28.934Z,997.94
2019-02-09T12:19:28.873Z,997.87
2019-02-09T12:20:28.823Z,997.83
2019-02-09T12:21:28.750Z,997.92
2019-02-09T12:22:28.689Z,997.87
2019-02-09T12:23:28.636Z,997.85
2019-02-09T12:24:28.566Z,997.82
2019-02-09T12:25:28.498Z,997.92
2019-02-09T12:26:28.441Z,997.87
2019-02-09T12:27:28.389Z,997.91
2019-02-09T12:28:28.333Z,997.90